Time;durP1;ratioP1;P1;durP2;ratioP2;P2;SDS_P1;SDS_P2;PMS_P1;PMS_P2;Temp;Humidity;BMP_temperature;BMP_pressure;BME280_temperature;BME280_humidity;BME280_pressure;Samples;Min_cycle;Max_cycle;Signal;HPM_P1;HPM_P2
2023/07/23 00:00:16;;;;;;;31.65;9.05;;;15.70;99.90;;;;;;5019610;28;20027;-77
2023/07/23 00:02:42;;;;;;;31.13;9.20;;;15.70;99.90;;;;;;5043963;28;20048;-78
2023/07/23 00:05:08;;;;;;;27.80;9.77;;;15.70;99.90;;;;;;5044288;28;20020;-77
2023/07/23 00:07:34;;;;;;;23.48;9.93;;;15.70;99.90;;;;;;5043916;28;20904;-77
2023/07/23 00:09:59;;;;;;;32.75;9.40;;;15.70;99.90;;;;;;5044331;28;20033;-78
2023/07/23 00:15:00;;;;;;;30.10;9.57;;;15.70;99.90;;;;;;5070966;28;20099;-79
2023/07/23 00:17:25;;;;;;;24.33;9.52;;;15.70;99.90;;;;;;5036338;28;20029;-79
2023/07/23 00:19:51;;;;;;;24.73;9.82;;;15.70;99.90;;;;;;5030281;28;20461;-80
2023/07/23 00:22:17;;;;;;;25.33;9.00;;;15.70;99.90;;;;;;5028053;28;20112;-78
2023/07/23 00:24:43;;;;;;;26.38;9.55;;;15.70;99.90;;;;;;5060884;28;20024;-79
2023/07/23 00:27:10;;;;;;;27.23;8.15;;;15.60;99.90;;;;;;5065047;28;20023;-79
2023/07/23 00:29:36;;;;;;;26.13;8.02;;;15.70;99.90;;;;;;5064424;28;20024;-80
2023/07/23 00:32:02;;;;;;;26.55;8.30;;;15.70;99.90;;;;;;5040380;28;20029;-79
2023/07/23 00:34:28;;;;;;;23.45;7.18;;;15.60;99.90;;;;;;5064784;28;20039;-79
2023/07/23 00:36:53;;;;;;;25.35;6.85;;;15.70;99.90;;;;;;5065019;28;20032;-80
2023/07/23 00:39:19;;;;;;;31.30;8.05;;;15.70;99.90;;;;;;5065010;28;20105;-78
2023/07/23 00:41:44;;;;;;;21.65;6.40;;;15.70;99.90;;;;;;5064973;28;20025;-80
2023/07/23 00:44:10;;;;;;;29.08;8.38;;;15.80;99.90;;;;;;5064194;28;20025;-79
2023/07/23 00:46:36;;;;;;;24.67;7.97;;;15.70;99.90;;;;;;5062094;28;20190;-79
2023/07/23 00:49:02;;;;;;;20.58;6.82;;;15.70;99.90;;;;;;5062875;28;20707;-79
2023/07/23 00:51:30;;;;;;;20.05;7.60;;;15.70;99.90;;;;;;5063163;28;20521;-78
2023/07/23 00:53:56;;;;;;;16.83;6.18;;;15.70;99.90;;;;;;5064249;28;20028;-79
2023/07/23 00:56:22;;;;;;;17.48;5.32;;;15.70;99.90;;;;;;5064763;28;20110;-78
2023/07/23 00:58:47;;;;;;;22.70;6.95;;;15.70;99.90;;;;;;5064185;28;20027;-82
2023/07/23 01:01:13;;;;;;;21.20;5.90;;;15.70;99.90;;;;;;5064622;28;20725;-79
2023/07/23 01:03:39;;;;;;;20.08;6.10;;;15.70;99.90;;;;;;5046919;28;20480;-79
2023/07/23 01:06:07;;;;;;;25.83;6.57;;;15.70;99.90;;;;;;5064800;28;20017;-80
2023/07/23 01:08:33;;;;;;;33.17;6.55;;;15.70;99.90;;;;;;5042671;28;20033;-79
2023/07/23 01:11:01;;;;;;;30.45;8.27;;;15.80;99.90;;;;;;5067832;28;20020;-79
2023/07/23 01:13:26;;;;;;;24.38;6.63;;;15.70;99.90;;;;;;5083422;22;20046;-76
2023/07/23 01:15:53;;;;;;;21.15;6.70;;;15.80;99.90;;;;;;5071493;28;20036;-77
2023/07/23 01:18:20;;;;;;;28.08;7.40;;;15.80;99.90;;;;;;5049325;28;20032;-77
2023/07/23 01:20:46;;;;;;;17.75;6.63;;;15.80;99.90;;;;;;5048676;28;20678;-77
2023/07/23 01:23:11;;;;;;;25.75;8.07;;;15.80;99.90;;;;;;5049472;28;20037;-78
2023/07/23 01:25:37;;;;;;;24.75;8.75;;;15.80;99.90;;;;;;5049000;28;20444;-77
2023/07/23 01:28:03;;;;;;;22.75;6.00;;;15.80;99.90;;;;;;5030600;28;20036;-76
2023/07/23 01:30:29;;;;;;;18.77;7.00;;;15.80;99.90;;;;;;5048550;28;20025;-77
2023/07/23 01:32:55;;;;;;;24.55;7.18;;;15.80;99.90;;;;;;5054483;28;20504;-76
2023/07/23 01:35:21;;;;;;;26.65;8.32;;;15.80;99.90;;;;;;5048465;28;20025;-78
2023/07/23 01:37:49;;;;;;;32.65;8.57;;;15.90;99.90;;;;;;5048267;28;20046;-77
2023/07/23 01:40:15;;;;;;;30.75;7.20;;;15.80;99.90;;;;;;5030359;28;20037;-78
2023/07/23 01:42:44;;;;;;;26.08;6.40;;;15.80;99.90;;;;;;5030041;28;20057;-78
2023/07/23 01:45:10;;;;;;;22.25;7.25;;;15.90;99.90;;;;;;5030331;28;20104;-76
2023/07/23 01:47:36;;;;;;;21.58;6.88;;;15.90;99.90;;;;;;5030594;28;20036;-77
2023/07/23 01:50:02;;;;;;;23.92;6.93;;;15.90;99.90;;;;;;5048372;28;20749;-76
2023/07/23 01:52:27;;;;;;;26.73;7.32;;;15.90;99.90;;;;;;5048595;28;20048;-77
2023/07/23 01:54:53;;;;;;;28.85;7.60;;;15.90;99.90;;;;;;5048345;28;20017;-77
2023/07/23 01:57:19;;;;;;;26.90;6.88;;;16.00;99.90;;;;;;5052005;28;20472;-76
2023/07/23 01:59:45;;;;;;;30.45;6.72;;;15.90;99.90;;;;;;5048782;28;20029;-76
2023/07/23 02:02:11;;;;;;;19.00;5.65;;;15.90;99.90;;;;;;5048419;28;20122;-78
2023/07/23 02:04:37;;;;;;;25.48;6.20;;;15.90;99.90;;;;;;5048277;28;20104;-77
2023/07/23 02:07:02;;;;;;;26.20;5.90;;;15.90;99.90;;;;;;5048429;28;20061;-75
2023/07/23 02:09:28;;;;;;;22.88;5.47;;;15.90;99.90;;;;;;5034990;28;20048;-77
2023/07/23 02:11:54;;;;;;;19.92;4.97;;;15.90;99.90;;;;;;5048897;28;20027;-77
2023/07/23 02:14:20;;;;;;;20.98;5.30;;;16.00;99.90;;;;;;5029454;22;20494;-80
2023/07/23 02:16:45;;;;;;;16.40;4.68;;;16.00;99.90;;;;;;5007792;28;20046;-79
2023/07/23 02:19:13;;;;;;;17.98;5.25;;;16.00;99.90;;;;;;5006266;28;20030;-80
2023/07/23 02:21:38;;;;;;;20.00;4.70;;;16.00;99.90;;;;;;5007991;28;20051;-78
2023/07/23 02:24:05;;;;;;;16.40;4.53;;;16.00;99.90;;;;;;5007087;28;20478;-80
2023/07/23 02:26:31;;;;;;;11.82;4.40;;;16.00;99.90;;;;;;5007426;28;20370;-80
2023/07/23 02:28:57;;;;;;;19.80;4.70;;;16.10;99.90;;;;;;5007334;28;20033;-79
2023/07/23 02:31:22;;;;;;;23.23;4.68;;;16.10;99.90;;;;;;4988959;28;20146;-80
2023/07/23 02:33:48;;;;;;;23.42;5.30;;;16.10;99.90;;;;;;5006407;28;20088;-80
2023/07/23 02:36:14;;;;;;;16.48;3.92;;;16.10;99.90;;;;;;5005948;28;20076;-78
2023/07/23 02:38:39;;;;;;;15.68;4.35;;;16.10;99.90;;;;;;5006527;28;20029;-80
2023/07/23 02:41:06;;;;;;;18.27;4.00;;;16.10;99.90;;;;;;5006417;28;20080;-79
2023/07/23 02:43:32;;;;;;;11.50;3.55;;;16.10;99.90;;;;;;5007024;28;20049;-79
2023/07/23 02:45:58;;;;;;;19.70;4.53;;;16.10;99.90;;;;;;5007075;28;20026;-80
2023/07/23 02:48:23;;;;;;;14.27;3.47;;;16.10;99.90;;;;;;5005034;28;20562;-80
2023/07/23 02:50:52;;;;;;;11.25;2.42;;;16.10;99.90;;;;;;5006970;28;20790;-78
2023/07/23 02:53:18;;;;;;;12.90;3.17;;;16.20;99.90;;;;;;5006462;28;20025;-80
2023/07/23 02:55:44;;;;;;;8.60;3.13;;;16.20;99.90;;;;;;5006780;28;20030;-79
2023/07/23 02:58:10;;;;;;;15.43;3.40;;;16.20;99.90;;;;;;5006916;28;20475;-81
2023/07/23 03:00:39;;;;;;;14.60;3.10;;;16.20;99.90;;;;;;5006463;28;20029;-79
2023/07/23 03:03:06;;;;;;;13.85;2.22;;;16.20;99.90;;;;;;5005869;28;20049;-79
2023/07/23 03:05:33;;;;;;;9.75;2.00;;;16.20;99.90;;;;;;5006683;28;20026;-80
2023/07/23 03:07:59;;;;;;;11.35;2.13;;;16.20;99.90;;;;;;5006358;28;20029;-79
2023/07/23 03:10:25;;;;;;;9.02;2.22;;;16.30;99.90;;;;;;5006145;28;20025;-80
2023/07/23 03:12:50;;;;;;;11.95;2.53;;;16.30;99.90;;;;;;5012978;22;20070;-77
2023/07/23 03:15:17;;;;;;;13.93;2.33;;;16.30;99.90;;;;;;5070913;28;20112;-78
2023/07/23 03:17:43;;;;;;;7.15;2.00;;;16.30;99.90;;;;;;5051296;28;20039;-78
2023/07/23 03:20:10;;;;;;;10.45;2.08;;;16.30;99.90;;;;;;5048592;28;20448;-78
2023/07/23 03:22:40;;;;;;;8.60;1.92;;;16.30;99.90;;;;;;5053134;28;20481;-76
2023/07/23 03:25:06;;;;;;;6.47;1.70;;;16.40;99.90;;;;;;5029173;28;20457;-78
2023/07/23 03:27:32;;;;;;;8.57;2.47;;;16.40;99.90;;;;;;5047032;28;20020;-78
2023/07/23 03:29:58;;;;;;;16.55;1.67;;;16.40;99.90;;;;;;5033141;28;20086;-77
2023/07/23 03:32:24;;;;;;;10.48;2.22;;;16.40;99.90;;;;;;5053821;28;20016;-76
2023/07/23 03:34:49;;;;;;;9.05;1.88;;;16.40;99.90;;;;;;5046524;28;20556;-77
2023/07/23 03:37:15;;;;;;;11.25;2.17;;;16.40;99.90;;;;;;5049711;28;20104;-77
2023/07/23 03:39:41;;;;;;;9.07;1.83;;;16.40;99.90;;;;;;5046869;28;20453;-77
2023/07/23 03:42:07;;;;;;;6.93;1.83;;;16.50;99.90;;;;;;5046166;28;20531;-77
2023/07/23 03:44:33;;;;;;;10.90;1.80;;;16.50;99.90;;;;;;5046048;28;20033;-77
2023/07/23 03:47:03;;;;;;;11.35;1.77;;;16.50;99.90;;;;;;5046551;28;20051;-78
2023/07/23 03:49:28;;;;;;;8.45;1.58;;;16.50;99.90;;;;;;5046633;28;20112;-77
2023/07/23 03:51:54;;;;;;;8.20;1.98;;;16.50;99.90;;;;;;5045851;28;20141;-79
2023/07/23 03:54:19;;;;;;;8.13;1.45;;;16.50;99.90;;;;;;5028036;28;20029;-78
2023/07/23 03:56:45;;;;;;;4.07;1.25;;;16.60;99.90;;;;;;5045921;28;20021;-78
2023/07/23 03:59:11;;;;;;;1.30;0.60;;;16.60;99.90;;;;;;5045937;28;20025;-77
2023/07/23 04:01:37;;;;;;;3.72;1.17;;;16.60;99.90;;;;;;5046523;28;20013;-77
2023/07/23 04:04:03;;;;;;;6.10;0.90;;;16.60;99.90;;;;;;5046303;28;20037;-78
2023/07/23 04:06:28;;;;;;;8.98;1.30;;;16.60;99.90;;;;;;5049637;28;20385;-77
2023/07/23 04:08:54;;;;;;;6.70;0.75;;;16.60;99.90;;;;;;5058381;28;20024;-77
2023/07/23 04:11:20;;;;;;;7.13;1.10;;;16.70;99.90;;;;;;5045863;28;21446;-78
2023/07/23 04:13:48;;;;;;;5.78;0.82;;;16.60;99.90;;;;;;5072369;22;20404;-81
2023/07/23 04:16:13;;;;;;;9.15;1.50;;;16.70;99.90;;;;;;5045846;28;20041;-80
2023/07/23 04:18:49;;;;;;;12.88;2.22;;;16.70;99.90;;;;;;5029845;28;20108;-80
2023/07/23 04:21:18;;;;;;;7.85;1.85;;;16.70;99.90;;;;;;5040122;28;20033;-80
2023/07/23 04:23:51;;;;;;;14.75;4.05;;;16.80;99.90;;;;;;5032445;28;20044;-82
2023/07/23 04:26:18;;;;;;;16.65;3.08;;;16.80;99.90;;;;;;5038755;28;20043;-80
2023/07/23 04:28:45;;;;;;;19.48;2.53;;;16.80;99.90;;;;;;5045030;28;20033;-79
2023/07/23 04:31:11;;;;;;;14.27;3.08;;;16.80;99.90;;;;;;5044832;28;20047;-79
2023/07/23 04:33:37;;;;;;;13.02;2.08;;;16.90;99.90;;;;;;5044959;28;20092;-81
2023/07/23 04:36:04;;;;;;;14.93;3.03;;;16.90;99.90;;;;;;5049323;28;20025;-79
2023/07/23 04:38:29;;;;;;;12.60;2.45;;;16.90;99.90;;;;;;5044815;28;20065;-79
2023/07/23 04:40:55;;;;;;;14.98;2.65;;;16.90;99.90;;;;;;5045014;28;20059;-79
2023/07/23 04:43:21;;;;;;;13.00;2.40;;;16.90;99.90;;;;;;5029928;28;20065;-79
2023/07/23 04:45:46;;;;;;;17.05;2.95;;;16.90;99.90;;;;;;5048624;28;20562;-80
2023/07/23 04:48:14;;;;;;;17.52;3.30;;;16.90;99.90;;;;;;5048368;28;20021;-80
2023/07/23 04:50:40;;;;;;;19.85;3.53;;;16.90;99.90;;;;;;5048372;28;20033;-79
2023/07/23 04:53:07;;;;;;;16.35;3.08;;;16.90;99.90;;;;;;5048356;28;20281;-80
2023/07/23 04:55:32;;;;;;;11.88;3.00;;;17.00;99.90;;;;;;5049322;28;20078;-80
2023/07/23 04:57:58;;;;;;;16.77;3.38;;;17.00;99.90;;;;;;5048546;28;20419;-80
2023/07/23 05:00:24;;;;;;;14.10;3.35;;;17.00;99.90;;;;;;5048264;28;20500;-80
2023/07/23 05:02:50;;;;;;;14.80;3.13;;;16.90;99.90;;;;;;5047817;28;20052;-80
2023/07/23 05:05:15;;;;;;;16.33;3.42;;;16.90;99.90;;;;;;5053445;28;20122;-80
2023/07/23 05:07:41;;;;;;;14.70;3.97;;;17.00;99.90;;;;;;5048407;28;20381;-80
2023/07/23 05:10:07;;;;;;;19.35;3.88;;;17.00;99.90;;;;;;5048455;28;20127;-80
2023/07/23 05:12:33;;;;;;;14.27;4.53;;;17.00;99.90;;;;;;5048363;28;20024;-81
2023/07/23 05:15:12;;;;;;;18.52;5.13;;;17.00;99.90;;;;;;5047955;28;20555;-80
2023/07/23 05:17:39;;;;;;;12.85;3.20;;;17.00;99.90;;;;;;5048088;28;20077;-80
2023/07/23 05:20:06;;;;;;;13.05;4.20;;;17.00;99.90;;;;;;5047927;28;20029;-81
2023/07/23 05:22:33;;;;;;;11.77;3.78;;;17.00;99.90;;;;;;5048111;28;20021;-79
2023/07/23 05:24:58;;;;;;;11.48;3.60;;;17.00;99.90;;;;;;5047756;28;20029;-81
2023/07/23 05:27:27;;;;;;;10.93;2.50;;;17.00;99.90;;;;;;5048335;28;20021;-81
2023/07/23 05:29:53;;;;;;;10.93;3.03;;;17.00;99.90;;;;;;5046578;28;20040;-79
2023/07/23 05:32:19;;;;;;;10.98;3.22;;;17.10;99.90;;;;;;5045726;28;20390;-81
2023/07/23 05:34:44;;;;;;;10.20;3.13;;;17.10;99.90;;;;;;5047669;28;20071;-81
2023/07/23 05:37:10;;;;;;;7.28;2.80;;;17.10;99.90;;;;;;5044428;28;20128;-80
2023/07/23 05:39:36;;;;;;;15.95;3.72;;;17.10;99.90;;;;;;5042274;28;20021;-80
2023/07/23 05:42:01;;;;;;;10.05;3.08;;;17.00;99.90;;;;;;5027151;28;20605;-80
2023/07/23 05:44:28;;;;;;;15.45;3.58;;;17.00;99.90;;;;;;5080249;22;20601;-77
2023/07/23 05:46:53;;;;;;;10.45;2.50;;;17.10;99.90;;;;;;5056608;28;20124;-77
2023/07/23 05:49:19;;;;;;;12.93;2.92;;;17.10;99.90;;;;;;5057376;28;20108;-78
2023/07/23 05:51:45;;;;;;;12.55;3.80;;;17.00;99.90;;;;;;5056706;28;20056;-78
2023/07/23 05:54:10;;;;;;;14.77;3.45;;;17.10;99.90;;;;;;5055976;28;20547;-78
2023/07/23 05:56:37;;;;;;;10.82;4.00;;;17.10;99.90;;;;;;5061489;28;20020;-76
2023/07/23 05:59:02;;;;;;;14.20;4.30;;;17.10;99.90;;;;;;5072490;28;20039;-78
2023/07/23 06:01:28;;;;;;;14.60;3.92;;;17.10;99.90;;;;;;5058408;28;20036;-76
2023/07/23 06:03:54;;;;;;;11.05;3.15;;;17.20;99.90;;;;;;5070541;28;20471;-77
2023/07/23 06:06:20;;;;;;;12.00;3.22;;;17.20;99.90;;;;;;5048610;28;20099;-77
2023/07/23 06:08:45;;;;;;;24.10;3.08;;;17.10;99.90;;;;;;5064826;28;20036;-77
2023/07/23 06:11:11;;;;;;;22.25;3.88;;;17.10;99.90;;;;;;5061355;28;20017;-78
2023/07/23 06:13:36;;;;;;;8.82;2.85;;;17.10;99.90;;;;;;5063883;28;20029;-79
2023/07/23 06:16:02;;;;;;;12.88;2.97;;;17.20;99.90;;;;;;5047338;28;20481;-78
2023/07/23 06:18:28;;;;;;;18.20;3.15;;;17.20;99.90;;;;;;5065898;28;20036;-77
2023/07/23 06:20:54;;;;;;;8.60;3.53;;;17.20;99.90;;;;;;5062783;28;20590;-77
2023/07/23 06:23:20;;;;;;;18.50;3.60;;;17.20;99.90;;;;;;5061970;28;20036;-78
2023/07/23 06:25:45;;;;;;;15.18;3.05;;;17.20;99.90;;;;;;5063090;28;20093;-78
2023/07/23 06:28:11;;;;;;;12.45;3.78;;;17.30;99.90;;;;;;5064978;28;20623;-78
2023/07/23 06:30:37;;;;;;;15.13;3.47;;;17.30;99.90;;;;;;5065159;28;20029;-77
2023/07/23 06:33:03;;;;;;;15.13;3.50;;;17.30;99.90;;;;;;5064041;28;20101;-78
2023/07/23 06:35:28;;;;;;;16.55;3.67;;;17.30;99.90;;;;;;5058746;28;20154;-78
2023/07/23 06:37:54;;;;;;;14.15;3.67;;;17.40;99.90;;;;;;5064816;28;20141;-77
2023/07/23 06:40:20;;;;;;;14.93;5.20;;;17.40;99.90;;;;;;5066676;28;20074;-78
2023/07/23 06:45:22;;;;;;;16.90;4.40;;;17.60;99.90;;;;;;4990888;28;20190;-82
2023/07/23 06:47:48;;;;;;;15.40;4.38;;;17.70;99.90;;;;;;4974840;28;20585;-82
2023/07/23 06:50:13;;;;;;;17.38;4.03;;;17.70;99.90;;;;;;4969972;28;20027;-82
2023/07/23 06:52:39;;;;;;;14.93;3.70;;;17.70;99.90;;;;;;4986184;28;20026;-80
2023/07/23 06:55:05;;;;;;;17.77;5.43;;;17.70;99.90;;;;;;4984490;28;20129;-81
2023/07/23 06:57:30;;;;;;;23.15;4.13;;;17.80;99.90;;;;;;4968646;28;20085;-80
2023/07/23 06:59:58;;;;;;;17.98;4.85;;;17.80;99.90;;;;;;4968452;28;20804;-80
2023/07/23 07:02:24;;;;;;;14.80;4.05;;;17.80;99.90;;;;;;4974078;28;20035;-81
2023/07/23 07:04:51;;;;;;;16.85;3.95;;;17.80;99.90;;;;;;4979604;28;20038;-80
2023/07/23 07:07:16;;;;;;;20.98;5.55;;;17.80;99.90;;;;;;4981385;28;20019;-80
2023/07/23 07:09:42;;;;;;;19.63;3.90;;;17.80;99.90;;;;;;4981389;28;20112;-81
2023/07/23 07:12:08;;;;;;;16.83;4.03;;;17.90;99.90;;;;;;4970528;28;20030;-81
2023/07/23 07:14:34;;;;;;;16.27;3.72;;;18.00;99.90;;;;;;4992744;28;20034;-81
2023/07/23 07:17:00;;;;;;;17.75;3.75;;;18.10;99.90;;;;;;4975769;28;20037;-79
2023/07/23 07:19:25;;;;;;;14.07;3.60;;;18.10;99.90;;;;;;4970795;28;20027;-81
2023/07/23 07:21:51;;;;;;;12.15;3.08;;;18.10;99.90;;;;;;4990072;28;20458;-82
2023/07/23 07:24:17;;;;;;;20.08;4.18;;;18.00;99.90;;;;;;4972079;28;20066;-81
2023/07/23 07:26:43;;;;;;;16.65;3.78;;;18.00;99.90;;;;;;4975238;28;20429;-80
2023/07/23 07:29:09;;;;;;;17.52;4.05;;;18.20;99.90;;;;;;4983902;28;20058;-80
2023/07/23 07:31:34;;;;;;;16.02;3.25;;;18.30;99.90;;;;;;4990845;28;20648;-81
2023/07/23 07:34:00;;;;;;;14.15;3.10;;;18.40;99.90;;;;;;4985020;28;20034;-81
2023/07/23 07:36:26;;;;;;;17.15;3.38;;;18.40;99.90;;;;;;4972626;28;20030;-82
2023/07/23 07:38:51;;;;;;;15.15;3.42;;;18.50;99.90;;;;;;4976160;28;20023;-80
2023/07/23 07:41:17;;;;;;;15.15;3.72;;;18.60;99.90;;;;;;4981425;28;20030;-80
2023/07/23 07:43:43;;;;;;;8.10;2.65;;;18.50;99.90;;;;;;5003666;23;20497;-82
2023/07/23 07:46:08;;;;;;;11.25;3.72;;;18.40;99.90;;;;;;5051661;28;20515;-82
2023/07/23 07:48:35;;;;;;;19.65;3.55;;;18.40;99.90;;;;;;5050459;28;20021;-82
2023/07/23 07:51:06;;;;;;;16.58;3.63;;;18.40;99.90;;;;;;5036615;28;20029;-84
2023/07/23 07:53:34;;;;;;;26.15;3.83;;;18.40;99.90;;;;;;5049824;28;20074;-83
2023/07/23 07:56:00;;;;;;;13.25;3.17;;;18.30;99.90;;;;;;5031072;28;20116;-82
2023/07/23 07:58:27;;;;;;;14.90;3.45;;;18.30;99.90;;;;;;5045246;28;20068;-83
2023/07/23 08:00:56;;;;;;;17.10;4.43;;;18.30;99.90;;;;;;5032941;28;20032;-82
2023/07/23 08:03:24;;;;;;;14.48;3.15;;;18.30;99.90;;;;;;5032528;28;20032;-85
2023/07/23 08:05:50;;;;;;;13.32;2.97;;;18.30;99.90;;;;;;5049589;28;20021;-82
2023/07/23 08:08:17;;;;;;;15.32;3.25;;;18.30;99.90;;;;;;5050973;28;20167;-84
2023/07/23 08:10:45;;;;;;;13.25;2.63;;;18.20;99.90;;;;;;5025532;28;20090;-81
2023/07/23 08:13:12;;;;;;;10.25;2.28;;;18.20;99.70;;;;;;5049668;28;20373;-83
2023/07/23 08:15:37;;;;;;;15.45;3.20;;;18.20;99.70;;;;;;5049880;28;20033;-81
2023/07/23 08:18:03;;;;;;;17.75;2.88;;;18.10;99.30;;;;;;5052417;28;20021;-83
2023/07/23 08:20:32;;;;;;;16.08;3.40;;;18.10;99.00;;;;;;5053306;28;20025;-82
2023/07/23 08:22:58;;;;;;;10.23;2.55;;;18.40;99.60;;;;;;5036936;28;20045;-83
2023/07/23 08:25:24;;;;;;;16.10;2.85;;;18.60;99.10;;;;;;5053759;28;20024;-83
2023/07/23 08:27:58;;;;;;;13.30;2.38;;;18.70;99.10;;;;;;5053802;28;20025;-84
2023/07/23 08:30:24;;;;;;;14.90;2.65;;;18.90;98.30;;;;;;5053596;28;20013;-84
2023/07/23 08:32:51;;;;;;;14.65;3.08;;;19.00;98.10;;;;;;5053479;28;20373;-82
2023/07/23 08:35:17;;;;;;;11.90;3.08;;;19.10;98.50;;;;;;5053234;28;20424;-84
2023/07/23 08:37:43;;;;;;;17.63;3.92;;;19.10;98.10;;;;;;5054023;28;20457;-83
2023/07/23 08:40:09;;;;;;;15.05;3.17;;;19.00;97.70;;;;;;5036776;28;20033;-85
2023/07/23 08:45:57;;;;;;;10.70;3.15;;;19.20;97.10;;;;;;5046956;28;20050;-82
2023/07/23 08:48:35;;;;;;;19.02;4.15;;;19.30;98.60;;;;;;5033696;28;20029;-81
2023/07/23 08:51:01;;;;;;;18.85;3.85;;;19.10;99.10;;;;;;5036160;28;20087;-80
2023/07/23 08:53:33;;;;;;;16.63;4.45;;;19.10;99.80;;;;;;5033530;28;20438;-82
2023/07/23 08:55:58;;;;;;;18.38;4.13;;;19.50;99.90;;;;;;5049639;28;20112;-81
2023/07/23 08:58:24;;;;;;;10.50;3.53;;;19.70;98.40;;;;;;5051265;28;20167;-81
2023/07/23 09:00:50;;;;;;;8.13;3.80;;;19.90;96.90;;;;;;5052265;28;20538;-82
2023/07/23 09:03:21;;;;;;;17.00;4.15;;;20.00;96.40;;;;;;5052506;28;20033;-83
2023/07/23 09:05:47;;;;;;;;;;;20.10;96.20;;;;;;5053297;28;20031;-85
2023/07/23 09:08:12;;;;;;;9.70;3.05;;;20.00;96.20;;;;;;5051846;28;19908;-83
2023/07/23 09:10:38;;;;;;;14.75;3.00;;;19.90;96.60;;;;;;5051776;28;20110;-83
2023/07/23 09:13:14;;;;;;;8.32;3.10;;;20.40;95.20;;;;;;5052118;28;20025;-83
2023/07/23 09:15:51;;;;;;;14.55;3.05;;;20.70;94.60;;;;;;5044412;28;20013;-82
2023/07/23 09:18:19;;;;;;;11.43;3.05;;;20.70;94.70;;;;;;5047272;28;20032;-81
2023/07/23 09:20:51;;;;;;;10.10;3.95;;;21.10;94.60;;;;;;5057470;28;20032;-84
2023/07/23 09:23:17;;;;;;;17.02;3.95;;;21.90;94.00;;;;;;5051975;28;20083;-82
2023/07/23 09:25:46;;;;;;;14.18;3.38;;;22.20;92.00;;;;;;5049819;28;20090;-83
2023/07/23 09:28:22;;;;;;;9.15;3.78;;;22.60;90.60;;;;;;5039975;28;20026;-83
2023/07/23 09:30:48;;;;;;;11.73;3.45;;;21.90;90.30;;;;;;5040051;28;20086;-81
2023/07/23 09:33:14;;;;;;;11.80;4.32;;;21.50;91.70;;;;;;5051400;28;20027;-83
2023/07/23 09:35:41;;;;;;;9.50;3.10;;;21.40;92.20;;;;;;5042683;28;20393;-82
2023/07/23 09:38:12;;;;;;;10.68;3.38;;;21.10;92.50;;;;;;5051809;28;20024;-82
2023/07/23 09:40:40;;;;;;;15.40;4.18;;;21.00;93.10;;;;;;5051733;28;20049;-81
2023/07/23 09:45:38;;;;;;;11.88;3.90;;;20.80;93.60;;;;;;5037024;28;20525;-83
2023/07/23 09:48:05;;;;;;;15.90;4.22;;;21.00;92.90;;;;;;5041491;28;20461;-79
2023/07/23 09:50:31;;;;;;;11.30;4.15;;;20.80;93.10;;;;;;5051679;28;20029;-81
2023/07/23 09:52:57;;;;;;;15.32;4.80;;;20.60;93.90;;;;;;5045381;28;20027;-77
2023/07/23 09:55:23;;;;;;;13.30;4.85;;;20.60;94.10;;;;;;5035735;28;20033;-77
2023/07/23 09:57:53;;;;;;;16.33;4.88;;;20.60;94.20;;;;;;5040527;28;20078;-78
2023/07/23 10:00:19;;;;;;;17.50;4.63;;;20.60;94.50;;;;;;5046724;28;20079;-78
2023/07/23 10:02:49;;;;;;;13.68;5.82;;;20.40;94.40;;;;;;5022690;28;20603;-78
2023/07/23 10:05:17;;;;;;;15.75;4.70;;;20.40;94.60;;;;;;5039724;28;20041;-77
2023/07/23 10:07:46;;;;;;;13.40;4.82;;;20.60;94.50;;;;;;5042420;28;20424;-77
2023/07/23 10:10:13;;;;;;;15.00;4.05;;;20.70;94.10;;;;;;5032896;28;20030;-78
2023/07/23 10:12:39;;;;;;;14.15;3.97;;;21.20;93.10;;;;;;5032858;28;20097;-78
2023/07/23 10:15:06;;;;;;;14.13;4.25;;;21.70;91.60;;;;;;5039258;28;20092;-77
2023/07/23 10:17:37;;;;;;;13.30;4.63;;;22.20;91.30;;;;;;5039636;28;20024;-78
2023/07/23 10:20:05;;;;;;;12.52;4.55;;;22.40;90.70;;;;;;5035429;28;20490;-79
2023/07/23 10:22:38;;;;;;;10.90;3.72;;;23.80;88.40;;;;;;5036186;28;20032;-78
2023/07/23 10:25:25;;;;;;;9.38;3.97;;;24.60;82.00;;;;;;5044377;28;20025;-78
2023/07/23 10:28:00;;;;;;;7.38;3.85;;;25.40;81.00;;;;;;5015704;28;20028;-78
2023/07/23 10:30:27;;;;;;;9.23;3.53;;;25.70;76.50;;;;;;5036249;28;20034;-78
2023/07/23 10:33:11;;;;;;;10.68;4.18;;;25.60;75.70;;;;;;5014058;28;20025;-78
2023/07/23 10:35:54;;;;;;;7.28;2.88;;;25.80;74.90;;;;;;5030513;28;20021;-79
2023/07/23 10:38:23;;;;;;;11.50;4.43;;;26.30;70.20;;;;;;5030843;28;20143;-78
2023/07/23 10:40:49;;;;;;;8.68;4.10;;;25.90;74.70;;;;;;5032501;28;20030;-79
2023/07/23 10:43:15;;;;;;;14.55;3.97;;;25.50;74.40;;;;;;5060444;22;20073;-81
2023/07/23 10:46:02;;;;;;;12.27;4.13;;;25.50;74.60;;;;;;5038353;28;20060;-81
2023/07/23 10:49:02;;;;;;;12.45;5.05;;;25.20;75.90;;;;;;5026112;28;20116;-83
2023/07/23 10:51:28;;;;;;;11.93;3.90;;;24.60;73.10;;;;;;5028088;28;20108;-82
2023/07/23 10:54:02;;;;;;;11.20;4.75;;;24.10;76.90;;;;;;5024603;28;20140;-84
2023/07/23 10:56:41;;;;;;;13.68;4.93;;;24.40;77.60;;;;;;5026252;28;20109;-82
2023/07/23 10:59:06;;;;;;;15.38;4.90;;;24.30;75.80;;;;;;5011617;28;20045;-82
2023/07/23 11:01:38;;;;;;;13.52;4.43;;;24.10;78.10;;;;;;5010665;28;20095;-83
2023/07/23 11:04:14;;;;;;;9.02;3.47;;;24.20;79.90;;;;;;5011872;28;20048;-84
2023/07/23 11:07:06;;;;;;;11.15;3.85;;;24.60;77.10;;;;;;5021831;28;20029;-83
2023/07/23 11:09:40;;;;;;;15.35;4.15;;;25.20;73.70;;;;;;5006309;28;20022;-82
2023/07/23 11:12:06;;;;;;;8.70;3.67;;;24.70;72.70;;;;;;5012110;28;20030;-82
2023/07/23 11:14:34;;;;;;;11.18;3.53;;;23.90;76.40;;;;;;5019884;28;20018;-82
2023/07/23 11:17:03;;;;;;;10.95;5.25;;;23.30;79.70;;;;;;5011548;28;20079;-82
2023/07/23 11:19:30;;;;;;;18.00;5.13;;;23.10;82.80;;;;;;5010257;28;20054;-85
2023/07/23 11:21:58;;;;;;;11.75;4.38;;;23.60;82.70;;;;;;5018508;28;20505;-83
2023/07/23 11:24:26;;;;;;;9.65;4.53;;;23.90;80.40;;;;;;5011365;28;20080;-83
2023/07/23 11:26:52;;;;;;;10.13;4.35;;;24.10;78.70;;;;;;5011722;28;20022;-83
2023/07/23 11:29:18;;;;;;;12.20;4.55;;;23.70;78.80;;;;;;5026290;28;20026;-84
2023/07/23 11:31:45;;;;;;;18.08;5.43;;;24.00;79.30;;;;;;5010138;28;20493;-82
2023/07/23 11:34:12;;;;;;;10.32;3.85;;;24.70;78.40;;;;;;5014024;28;20475;-83
2023/07/23 11:36:38;;;;;;;15.35;4.88;;;25.00;74.20;;;;;;5013767;28;20033;-82
2023/07/23 11:39:05;;;;;;;10.95;4.03;;;24.70;74.60;;;;;;5010433;28;20030;-82
2023/07/23 11:41:34;;;;;;;14.25;4.88;;;24.80;76.20;;;;;;5012692;28;20053;-83
2023/07/23 11:44:03;;;;;;;11.52;5.13;;;24.80;74.00;;;;;;5036481;23;20099;-80
2023/07/23 11:46:34;;;;;;;10.68;4.05;;;25.70;75.70;;;;;;5003692;28;20022;-80
2023/07/23 11:49:01;;;;;;;10.73;4.57;;;26.60;69.80;;;;;;5019048;28;20122;-82
2023/07/23 11:51:34;;;;;;;10.13;4.35;;;26.90;70.30;;;;;;5015626;28;20034;-82
2023/07/23 11:54:02;;;;;;;12.90;5.10;;;27.60;65.50;;;;;;5016621;28;20022;-79
2023/07/23 11:56:30;;;;;;;13.75;4.80;;;28.00;65.30;;;;;;5024341;28;20493;-81
2023/07/23 11:59:01;;;;;;;10.98;5.70;;;28.10;63.50;;;;;;5017726;28;20652;-80
2023/07/23 12:01:28;;;;;;;10.90;4.88;;;27.80;65.70;;;;;;5010152;28;20033;-80
2023/07/23 12:03:53;;;;;;;12.70;4.50;;;27.60;64.30;;;;;;5012161;28;20076;-82
2023/07/23 12:06:19;;;;;;;13.68;4.97;;;27.40;65.90;;;;;;5010278;28;20018;-81
2023/07/23 12:08:46;;;;;;;11.60;4.20;;;27.80;66.40;;;;;;5011928;28;20029;-82
2023/07/23 12:11:14;;;;;;;8.45;4.15;;;27.90;61.80;;;;;;5011692;28;20029;-81
2023/07/23 12:13:44;;;;;;;9.38;4.18;;;28.00;61.90;;;;;;5011633;28;20022;-82
2023/07/23 12:16:29;;;;;;;10.15;4.40;;;27.80;61.70;;;;;;5011602;28;20036;-81
2023/07/23 12:19:03;;;;;;;11.93;4.50;;;28.50;62.80;;;;;;5011706;28;20026;-82
2023/07/23 12:21:29;;;;;;;15.90;4.70;;;28.60;59.20;;;;;;5019142;28;20511;-80
2023/07/23 12:23:55;;;;;;;12.55;5.05;;;27.50;63.80;;;;;;5010827;28;20034;-80
2023/07/23 12:26:20;;;;;;;10.95;4.40;;;27.70;66.00;;;;;;5010108;28;20022;-80
2023/07/23 12:28:46;;;;;;;10.10;4.50;;;28.20;64.10;;;;;;5011480;28;20024;-80
2023/07/23 12:31:12;;;;;;;13.18;4.40;;;28.80;63.20;;;;;;5009946;28;20030;-81
2023/07/23 12:33:37;;;;;;;8.75;3.83;;;28.00;61.90;;;;;;5011298;28;20025;-82
2023/07/23 12:36:03;;;;;;;10.13;3.80;;;27.10;63.30;;;;;;5011081;28;20609;-83
2023/07/23 12:38:29;;;;;;;8.10;3.50;;;27.20;64.10;;;;;;5011709;28;20048;-80
2023/07/23 12:40:55;;;;;;;6.43;3.42;;;27.50;64.60;;;;;;5011918;28;20093;-82
2023/07/23 12:43:20;;;;;;;10.35;3.72;;;27.40;63.20;;;;;;5032505;23;20093;-86
2023/07/23 12:45:46;;;;;;;13.95;4.10;;;27.00;63.40;;;;;;5026669;28;20041;-85
2023/07/23 12:48:12;;;;;;;13.48;4.88;;;26.60;62.40;;;;;;5031110;28;20026;-84